sensor_id;sensor_type;location;lat;lon;timestamp;P1;durP1;ratioP1;P2;durP2;ratioP2
10029;SDS011;5055;52.054;8.524;2023-06-10T00:00:53;0.20;;;0.20;;
10029;SDS011;5055;52.054;8.524;2023-06-10T00:03:22;0.10;;;0.10;;
10029;SDS011;5055;52.054;8.524;2023-06-10T00:05:51;0.17;;;0.17;;
10029;SDS011;5055;52.054;8.524;2023-06-10T00:08:21;0.10;;;0.10;;
10029;SDS011;5055;52.054;8.524;2023-06-10T00:10:49;0.10;;;0.10;;
10029;SDS011;5055;52.054;8.524;2023-06-10T00:13:18;0.20;;;0.20;;
10029;SDS011;5055;52.054;8.524;2023-06-10T00:15:47;0.13;;;0.13;;
10029;SDS011;5055;52.054;8.524;2023-06-10T00:18:15;0.10;;;0.10;;
10029;SDS011;5055;52.054;8.524;2023-06-10T00:20:44;0.13;;;0.13;;
10029;SDS011;5055;52.054;8.524;2023-06-10T00:23:13;0.20;;;0.20;;
10029;SDS011;5055;52.054;8.524;2023-06-10T00:25:43;0.20;;;0.20;;
10029;SDS011;5055;52.054;8.524;2023-06-10T00:28:11;0.20;;;0.20;;
10029;SDS011;5055;52.054;8.524;2023-06-10T00:30:39;0.20;;;0.20;;
10029;SDS011;5055;52.054;8.524;2023-06-10T00:33:08;0.20;;;0.20;;
10029;SDS011;5055;52.054;8.524;2023-06-10T00:35:37;0.10;;;0.10;;
10029;SDS011;5055;52.054;8.524;2023-06-10T00:38:05;0.20;;;0.20;;
10029;SDS011;5055;52.054;8.524;2023-06-10T00:40:38;0.13;;;0.13;;
10029;SDS011;5055;52.054;8.524;2023-06-10T00:43:08;0.10;;;0.10;;
10029;SDS011;5055;52.054;8.524;2023-06-10T00:45:37;0.20;;;0.20;;
10029;SDS011;5055;52.054;8.524;2023-06-10T00:48:05;0.20;;;0.20;;
10029;SDS011;5055;52.054;8.524;2023-06-10T00:50:34;0.20;;;0.20;;
10029;SDS011;5055;52.054;8.524;2023-06-10T00:53:06;0.20;;;0.20;;
10029;SDS011;5055;52.054;8.524;2023-06-10T00:55:35;0.20;;;0.20;;
10029;SDS011;5055;52.054;8.524;2023-06-10T00:58:04;0.17;;;0.17;;
10029;SDS011;5055;52.054;8.524;2023-06-10T01:00:34;0.20;;;0.20;;
10029;SDS011;5055;52.054;8.524;2023-06-10T01:03:03;0.20;;;0.20;;
10029;SDS011;5055;52.054;8.524;2023-06-10T01:05:34;0.20;;;0.20;;
10029;SDS011;5055;52.054;8.524;2023-06-10T01:08:06;0.10;;;0.10;;
10029;SDS011;5055;52.054;8.524;2023-06-10T01:10:40;0.20;;;0.20;;
10029;SDS011;5055;52.054;8.524;2023-06-10T01:13:11;0.20;;;0.20;;
10029;SDS011;5055;52.054;8.524;2023-06-10T01:15:42;0.20;;;0.20;;
10029;SDS011;5055;52.054;8.524;2023-06-10T01:18:11;0.10;;;0.10;;
10029;SDS011;5055;52.054;8.524;2023-06-10T01:20:42;0.20;;;0.20;;
10029;SDS011;5055;52.054;8.524;2023-06-10T01:23:14;0.20;;;0.20;;
10029;SDS011;5055;52.054;8.524;2023-06-10T01:25:44;0.20;;;0.20;;
10029;SDS011;5055;52.054;8.524;2023-06-10T01:28:18;0.20;;;0.20;;
10029;SDS011;5055;52.054;8.524;2023-06-10T01:30:53;0.20;;;0.20;;
10029;SDS011;5055;52.054;8.524;2023-06-10T01:33:28;0.20;;;0.20;;
10029;SDS011;5055;52.054;8.524;2023-06-10T01:36:00;0.20;;;0.20;;
10029;SDS011;5055;52.054;8.524;2023-06-10T01:38:32;0.10;;;0.10;;
10029;SDS011;5055;52.054;8.524;2023-06-10T01:41:06;0.17;;;0.17;;
10029;SDS011;5055;52.054;8.524;2023-06-10T01:43:37;0.20;;;0.20;;
10029;SDS011;5055;52.054;8.524;2023-06-10T01:46:06;0.20;;;0.20;;
10029;SDS011;5055;52.054;8.524;2023-06-10T01:48:34;0.20;;;0.20;;
10029;SDS011;5055;52.054;8.524;2023-06-10T01:51:03;0.20;;;0.20;;
10029;SDS011;5055;52.054;8.524;2023-06-10T01:53:33;0.13;;;0.13;;
10029;SDS011;5055;52.054;8.524;2023-06-10T01:56:02;0.20;;;0.20;;
10029;SDS011;5055;52.054;8.524;2023-06-10T01:58:31;0.20;;;0.20;;
10029;SDS011;5055;52.054;8.524;2023-06-10T02:01:00;0.20;;;0.20;;
10029;SDS011;5055;52.054;8.524;2023-06-10T02:03:28;0.10;;;0.10;;
10029;SDS011;5055;52.054;8.524;2023-06-10T02:05:56;0.13;;;0.13;;
10029;SDS011;5055;52.054;8.524;2023-06-10T02:08:26;0.17;;;0.17;;
10029;SDS011;5055;52.054;8.524;2023-06-10T02:10:56;0.20;;;0.20;;
10029;SDS011;5055;52.054;8.524;2023-06-10T02:13:24;0.10;;;0.10;;
10029;SDS011;5055;52.054;8.524;2023-06-10T02:15:53;0.20;;;0.20;;
10029;SDS011;5055;52.054;8.524;2023-06-10T02:18:21;0.20;;;0.20;;
10029;SDS011;5055;52.054;8.524;2023-06-10T02:20:50;0.10;;;0.10;;
10029;SDS011;5055;52.054;8.524;2023-06-10T02:23:18;0.20;;;0.20;;
10029;SDS011;5055;52.054;8.524;2023-06-10T02:25:46;0.20;;;0.20;;
10029;SDS011;5055;52.054;8.524;2023-06-10T02:28:16;0.20;;;0.20;;
10029;SDS011;5055;52.054;8.524;2023-06-10T02:30:44;0.20;;;0.20;;
10029;SDS011;5055;52.054;8.524;2023-06-10T02:33:13;0.10;;;0.10;;
10029;SDS011;5055;52.054;8.524;2023-06-10T02:35:41;0.20;;;0.20;;
10029;SDS011;5055;52.054;8.524;2023-06-10T02:38:10;0.20;;;0.20;;
10029;SDS011;5055;52.054;8.524;2023-06-10T02:40:38;0.20;;;0.20;;
10029;SDS011;5055;52.054;8.524;2023-06-10T02:43:07;0.10;;;0.10;;
10029;SDS011;5055;52.054;8.524;2023-06-10T02:45:36;0.20;;;0.20;;
10029;SDS011;5055;52.054;8.524;2023-06-10T02:48:05;0.20;;;0.20;;
10029;SDS011;5055;52.054;8.524;2023-06-10T02:50:35;0.20;;;0.20;;
10029;SDS011;5055;52.054;8.524;2023-06-10T02:53:05;0.20;;;0.20;;
10029;SDS011;5055;52.054;8.524;2023-06-10T02:55:34;0.20;;;0.20;;
10029;SDS011;5055;52.054;8.524;2023-06-10T02:58:04;0.20;;;0.20;;
10029;SDS011;5055;52.054;8.524;2023-06-10T03:00:38;0.20;;;0.20;;
10029;SDS011;5055;52.054;8.524;2023-06-10T03:03:06;0.20;;;0.20;;
10029;SDS011;5055;52.054;8.524;2023-06-10T03:05:37;0.20;;;0.20;;
10029;SDS011;5055;52.054;8.524;2023-06-10T03:08:05;0.20;;;0.20;;
10029;SDS011;5055;52.054;8.524;2023-06-10T03:10:33;0.20;;;0.20;;
10029;SDS011;5055;52.054;8.524;2023-06-10T03:13:02;0.20;;;0.20;;
10029;SDS011;5055;52.054;8.524;2023-06-10T03:15:30;0.20;;;0.20;;
10029;SDS011;5055;52.054;8.524;2023-06-10T03:18:00;0.20;;;0.20;;
10029;SDS011;5055;52.054;8.524;2023-06-10T03:20:29;0.30;;;0.30;;
10029;SDS011;5055;52.054;8.524;2023-06-10T03:22:57;0.20;;;0.20;;
10029;SDS011;5055;52.054;8.524;2023-06-10T03:25:25;0.20;;;0.20;;
10029;SDS011;5055;52.054;8.524;2023-06-10T03:27:55;0.20;;;0.20;;
10029;SDS011;5055;52.054;8.524;2023-06-10T03:30:23;0.20;;;0.20;;
10029;SDS011;5055;52.054;8.524;2023-06-10T03:32:52;0.20;;;0.20;;
10029;SDS011;5055;52.054;8.524;2023-06-10T03:35:21;0.20;;;0.20;;
10029;SDS011;5055;52.054;8.524;2023-06-10T03:37:50;0.20;;;0.20;;
10029;SDS011;5055;52.054;8.524;2023-06-10T03:40:18;0.20;;;0.20;;
10029;SDS011;5055;52.054;8.524;2023-06-10T03:42:47;0.10;;;0.10;;
10029;SDS011;5055;52.054;8.524;2023-06-10T03:45:15;0.20;;;0.20;;
10029;SDS011;5055;52.054;8.524;2023-06-10T03:47:44;0.20;;;0.20;;
10029;SDS011;5055;52.054;8.524;2023-06-10T03:50:15;0.20;;;0.20;;
10029;SDS011;5055;52.054;8.524;2023-06-10T03:52:45;0.20;;;0.20;;
10029;SDS011;5055;52.054;8.524;2023-06-10T03:55:13;0.20;;;0.20;;
10029;SDS011;5055;52.054;8.524;2023-06-10T03:57:43;0.20;;;0.20;;
10029;SDS011;5055;52.054;8.524;2023-06-10T04:00:18;0.20;;;0.20;;
10029;SDS011;5055;52.054;8.524;2023-06-10T04:02:48;0.20;;;0.20;;
10029;SDS011;5055;52.054;8.524;2023-06-10T04:05:19;0.20;;;0.20;;
10029;SDS011;5055;52.054;8.524;2023-06-10T04:07:50;0.20;;;0.20;;
10029;SDS011;5055;52.054;8.524;2023-06-10T04:10:18;0.20;;;0.20;;
10029;SDS011;5055;52.054;8.524;2023-06-10T04:12:47;0.17;;;0.17;;
10029;SDS011;5055;52.054;8.524;2023-06-10T04:15:15;0.20;;;0.20;;
10029;SDS011;5055;52.054;8.524;2023-06-10T04:17:44;0.20;;;0.20;;
10029;SDS011;5055;52.054;8.524;2023-06-10T04:20:12;0.20;;;0.20;;
10029;SDS011;5055;52.054;8.524;2023-06-10T04:22:41;0.20;;;0.20;;
10029;SDS011;5055;52.054;8.524;2023-06-10T04:25:10;0.13;;;0.13;;
10029;SDS011;5055;52.054;8.524;2023-06-10T04:27:39;0.20;;;0.20;;
10029;SDS011;5055;52.054;8.524;2023-06-10T04:30:08;0.20;;;0.20;;
10029;SDS011;5055;52.054;8.524;2023-06-10T04:32:37;0.20;;;0.20;;
10029;SDS011;5055;52.054;8.524;2023-06-10T04:35:06;0.20;;;0.20;;
10029;SDS011;5055;52.054;8.524;2023-06-10T04:37:35;0.20;;;0.20;;
10029;SDS011;5055;52.054;8.524;2023-06-10T04:40:04;0.20;;;0.20;;
10029;SDS011;5055;52.054;8.524;2023-06-10T04:42:34;0.20;;;0.20;;
10029;SDS011;5055;52.054;8.524;2023-06-10T04:45:06;0.20;;;0.20;;
10029;SDS011;5055;52.054;8.524;2023-06-10T04:47:35;0.13;;;0.13;;
10029;SDS011;5055;52.054;8.524;2023-06-10T04:50:04;0.20;;;0.20;;
10029;SDS011;5055;52.054;8.524;2023-06-10T04:52:34;0.20;;;0.20;;
10029;SDS011;5055;52.054;8.524;2023-06-10T04:55:02;0.20;;;0.20;;
10029;SDS011;5055;52.054;8.524;2023-06-10T04:57:31;0.10;;;0.10;;
10029;SDS011;5055;52.054;8.524;2023-06-10T05:00:01;0.20;;;0.20;;
10029;SDS011;5055;52.054;8.524;2023-06-10T05:02:32;0.20;;;0.20;;
10029;SDS011;5055;52.054;8.524;2023-06-10T05:05:01;0.10;;;0.10;;
10029;SDS011;5055;52.054;8.524;2023-06-10T05:07:29;0.20;;;0.20;;
10029;SDS011;5055;52.054;8.524;2023-06-10T05:09:57;0.20;;;0.20;;
10029;SDS011;5055;52.054;8.524;2023-06-10T05:12:26;0.10;;;0.10;;
10029;SDS011;5055;52.054;8.524;2023-06-10T05:14:54;0.20;;;0.20;;
10029;SDS011;5055;52.054;8.524;2023-06-10T05:17:27;0.20;;;0.20;;
10029;SDS011;5055;52.054;8.524;2023-06-10T05:19:58;0.20;;;0.20;;
10029;SDS011;5055;52.054;8.524;2023-06-10T05:22:27;0.20;;;0.20;;
10029;SDS011;5055;52.054;8.524;2023-06-10T05:24:55;0.20;;;0.20;;
10029;SDS011;5055;52.054;8.524;2023-06-10T05:27:24;0.20;;;0.20;;
10029;SDS011;5055;52.054;8.524;2023-06-10T05:29:52;0.20;;;0.20;;
10029;SDS011;5055;52.054;8.524;2023-06-10T05:32:21;0.20;;;0.20;;
10029;SDS011;5055;52.054;8.524;2023-06-10T05:34:50;0.10;;;0.10;;
10029;SDS011;5055;52.054;8.524;2023-06-10T05:37:19;0.20;;;0.20;;
10029;SDS011;5055;52.054;8.524;2023-06-10T05:39:47;0.20;;;0.20;;
10029;SDS011;5055;52.054;8.524;2023-06-10T05:42:16;0.10;;;0.10;;
10029;SDS011;5055;52.054;8.524;2023-06-10T05:44:44;0.20;;;0.20;;
10029;SDS011;5055;52.054;8.524;2023-06-10T05:47:12;0.10;;;0.10;;
10029;SDS011;5055;52.054;8.524;2023-06-10T05:49:41;0.20;;;0.20;;
10029;SDS011;5055;52.054;8.524;2023-06-10T05:52:13;0.20;;;0.20;;
10029;SDS011;5055;52.054;8.524;2023-06-10T05:54:41;0.10;;;0.10;;
10029;SDS011;5055;52.054;8.524;2023-06-10T05:57:10;0.20;;;0.20;;
10029;SDS011;5055;52.054;8.524;2023-06-10T05:59:38;0.20;;;0.20;;
10029;SDS011;5055;52.054;8.524;2023-06-10T06:02:07;0.20;;;0.20;;
10029;SDS011;5055;52.054;8.524;2023-06-10T06:04:35;0.20;;;0.20;;
10029;SDS011;5055;52.054;8.524;2023-06-10T06:07:04;0.10;;;0.10;;
10029;SDS011;5055;52.054;8.524;2023-06-10T06:09:34;0.10;;;0.10;;
10029;SDS011;5055;52.054;8.524;2023-06-10T06:12:03;0.13;;;0.13;;
10029;SDS011;5055;52.054;8.524;2023-06-10T06:14:36;0.20;;;0.20;;
10029;SDS011;5055;52.054;8.524;2023-06-10T06:17:06;0.20;;;0.20;;
10029;SDS011;5055;52.054;8.524;2023-06-10T06:19:35;0.20;;;0.20;;
10029;SDS011;5055;52.054;8.524;2023-06-10T06:22:03;0.20;;;0.20;;
10029;SDS011;5055;52.054;8.524;2023-06-10T06:24:32;0.10;;;0.10;;
10029;SDS011;5055;52.054;8.524;2023-06-10T06:27:02;0.13;;;0.13;;
10029;SDS011;5055;52.054;8.524;2023-06-10T06:29:32;0.10;;;0.10;;
10029;SDS011;5055;52.054;8.524;2023-06-10T06:32:01;0.10;;;0.10;;
10029;SDS011;5055;52.054;8.524;2023-06-10T06:34:29;0.10;;;0.10;;
10029;SDS011;5055;52.054;8.524;2023-06-10T06:36:58;0.13;;;0.13;;
10029;SDS011;5055;52.054;8.524;2023-06-10T06:39:26;0.10;;;0.10;;
10029;SDS011;5055;52.054;8.524;2023-06-10T06:41:55;0.20;;;0.20;;
10029;SDS011;5055;52.054;8.524;2023-06-10T06:44:25;0.10;;;0.10;;
10029;SDS011;5055;52.054;8.524;2023-06-10T06:46:54;0.17;;;0.17;;
10029;SDS011;5055;52.054;8.524;2023-06-10T06:49:22;0.10;;;0.10;;
10029;SDS011;5055;52.054;8.524;2023-06-10T06:51:51;0.10;;;0.10;;
10029;SDS011;5055;52.054;8.524;2023-06-10T06:54:19;0.20;;;0.20;;
10029;SDS011;5055;52.054;8.524;2023-06-10T06:56:48;0.20;;;0.20;;
10029;SDS011;5055;52.054;8.524;2023-06-10T06:59:17;0.10;;;0.10;;
10029;SDS011;5055;52.054;8.524;2023-06-10T07:01:47;0.10;;;0.10;;
10029;SDS011;5055;52.054;8.524;2023-06-10T07:04:16;0.10;;;0.10;;
10029;SDS011;5055;52.054;8.524;2023-06-10T07:06:46;0.10;;;0.10;;
10029;SDS011;5055;52.054;8.524;2023-06-10T07:09:14;0.20;;;0.20;;
10029;SDS011;5055;52.054;8.524;2023-06-10T07:11:43;0.10;;;0.10;;
10029;SDS011;5055;52.054;8.524;2023-06-10T07:14:11;0.10;;;0.10;;
10029;SDS011;5055;52.054;8.524;2023-06-10T07:16:39;0.10;;;0.10;;
10029;SDS011;5055;52.054;8.524;2023-06-10T07:19:10;0.10;;;0.10;;
10029;SDS011;5055;52.054;8.524;2023-06-10T07:21:38;0.10;;;0.10;;
10029;SDS011;5055;52.054;8.524;2023-06-10T07:24:12;0.10;;;0.10;;
10029;SDS011;5055;52.054;8.524;2023-06-10T07:26:43;0.10;;;0.10;;
10029;SDS011;5055;52.054;8.524;2023-06-10T07:29:12;0.10;;;0.10;;
10029;SDS011;5055;52.054;8.524;2023-06-10T07:31:40;0.10;;;0.10;;
10029;SDS011;5055;52.054;8.524;2023-06-10T07:34:10;0.10;;;0.10;;
10029;SDS011;5055;52.054;8.524;2023-06-10T07:36:38;0.10;;;0.10;;
10029;SDS011;5055;52.054;8.524;2023-06-10T07:39:07;0.10;;;0.10;;
10029;SDS011;5055;52.054;8.524;2023-06-10T07:41:36;0.10;;;0.10;;
10029;SDS011;5055;52.054;8.524;2023-06-10T07:44:04;0.10;;;0.10;;
10029;SDS011;5055;52.054;8.524;2023-06-10T07:46:33;0.10;;;0.10;;
10029;SDS011;5055;52.054;8.524;2023-06-10T07:49:01;0.10;;;0.10;;
10029;SDS011;5055;52.054;8.524;2023-06-10T07:51:31;0.10;;;0.10;;
10029;SDS011;5055;52.054;8.524;2023-06-10T07:53:59;0.10;;;0.10;;
10029;SDS011;5055;52.054;8.524;2023-06-10T07:56:28;0.10;;;0.10;;
10029;SDS011;5055;52.054;8.524;2023-06-10T07:58:56;0.10;;;0.10;;
10029;SDS011;5055;52.054;8.524;2023-06-10T08:01:25;0.10;;;0.10;;
10029;SDS011;5055;52.054;8.524;2023-06-10T08:03:53;0.10;;;0.10;;
10029;SDS011;5055;52.054;8.524;2023-06-10T08:06:22;0.10;;;0.10;;
10029;SDS011;5055;52.054;8.524;2023-06-10T08:08:52;0.10;;;0.10;;
10029;SDS011;5055;52.054;8.524;2023-06-10T08:11:20;0.10;;;0.10;;
10029;SDS011;5055;52.054;8.524;2023-06-10T08:13:49;0.10;;;0.10;;
10029;SDS011;5055;52.054;8.524;2023-06-10T08:16:17;0.10;;;0.10;;
10029;SDS011;5055;52.054;8.524;2023-06-10T08:18:46;0.10;;;0.10;;
10029;SDS011;5055;52.054;8.524;2023-06-10T08:21:21;0.10;;;0.10;;
10029;SDS011;5055;52.054;8.524;2023-06-10T08:23:53;0.10;;;0.10;;
10029;SDS011;5055;52.054;8.524;2023-06-10T08:26:22;0.10;;;0.10;;
10029;SDS011;5055;52.054;8.524;2023-06-10T08:28:51;0.10;;;0.10;;
10029;SDS011;5055;52.054;8.524;2023-06-10T08:31:19;0.10;;;0.10;;
10029;SDS011;5055;52.054;8.524;2023-06-10T08:33:48;0.10;;;0.10;;
10029;SDS011;5055;52.054;8.524;2023-06-10T08:36:16;0.10;;;0.10;;
10029;SDS011;5055;52.054;8.524;2023-06-10T08:38:45;0.10;;;0.10;;
10029;SDS011;5055;52.054;8.524;2023-06-10T08:41:17;0.10;;;0.10;;
10029;SDS011;5055;52.054;8.524;2023-06-10T08:43:48;0.10;;;0.10;;
10029;SDS011;5055;52.054;8.524;2023-06-10T08:46:22;0.10;;;0.10;;
10029;SDS011;5055;52.054;8.524;2023-06-10T08:48:51;0.10;;;0.10;;
10029;SDS011;5055;52.054;8.524;2023-06-10T08:51:25;0.00;;;0.00;;
10029;SDS011;5055;52.054;8.524;2023-06-10T08:53:56;0.10;;;0.10;;
10029;SDS011;5055;52.054;8.524;2023-06-10T08:56:30;0.10;;;0.10;;
10029;SDS011;5055;52.054;8.524;2023-06-10T08:59:05;0.10;;;0.10;;
10029;SDS011;5055;52.054;8.524;2023-06-10T09:01:33;0.10;;;0.10;;
10029;SDS011;5055;52.054;8.524;2023-06-10T09:04:03;0.10;;;0.10;;
10029;SDS011;5055;52.054;8.524;2023-06-10T09:06:32;0.10;;;0.10;;
10029;SDS011;5055;52.054;8.524;2023-06-10T09:09:02;0.10;;;0.10;;
10029;SDS011;5055;52.054;8.524;2023-06-10T09:11:32;0.10;;;0.10;;
10029;SDS011;5055;52.054;8.524;2023-06-10T09:14:01;0.10;;;0.10;;
10029;SDS011;5055;52.054;8.524;2023-06-10T09:16:30;0.10;;;0.10;;
10029;SDS011;5055;52.054;8.524;2023-06-10T09:18:58;0.10;;;0.10;;
10029;SDS011;5055;52.054;8.524;2023-06-10T09:21:27;0.10;;;0.10;;
10029;SDS011;5055;52.054;8.524;2023-06-10T09:23:56;0.10;;;0.10;;
10029;SDS011;5055;52.054;8.524;2023-06-10T09:26:27;0.10;;;0.10;;
10029;SDS011;5055;52.054;8.524;2023-06-10T09:29:02;0.10;;;0.10;;
10029;SDS011;5055;52.054;8.524;2023-06-10T09:31:32;0.00;;;0.00;;
10029;SDS011;5055;52.054;8.524;2023-06-10T09:34:07;0.10;;;0.10;;
10029;SDS011;5055;52.054;8.524;2023-06-10T09:36:35;0.00;;;0.00;;
10029;SDS011;5055;52.054;8.524;2023-06-10T09:39:04;0.10;;;0.10;;
10029;SDS011;5055;52.054;8.524;2023-06-10T09:41:41;0.10;;;0.10;;
10029;SDS011;5055;52.054;8.524;2023-06-10T09:44:13;0.10;;;0.10;;
10029;SDS011;5055;52.054;8.524;2023-06-10T09:46:43;0.10;;;0.10;;
10029;SDS011;5055;52.054;8.524;2023-06-10T09:49:13;0.10;;;0.10;;
10029;SDS011;5055;52.054;8.524;2023-06-10T09:51:48;0.10;;;0.10;;
10029;SDS011;5055;52.054;8.524;2023-06-10T09:54:18;0.10;;;0.10;;
10029;SDS011;5055;52.054;8.524;2023-06-10T09:56:47;0.10;;;0.10;;
10029;SDS011;5055;52.054;8.524;2023-06-10T09:59:19;0.10;;;0.10;;
10029;SDS011;5055;52.054;8.524;2023-06-10T10:01:57;0.10;;;0.10;;
10029;SDS011;5055;52.054;8.524;2023-06-10T10:04:27;0.10;;;0.10;;
10029;SDS011;5055;52.054;8.524;2023-06-10T10:06:56;0.10;;;0.10;;
10029;SDS011;5055;52.054;8.524;2023-06-10T10:09:26;0.10;;;0.10;;
10029;SDS011;5055;52.054;8.524;2023-06-10T10:11:54;0.10;;;0.10;;
10029;SDS011;5055;52.054;8.524;2023-06-10T10:14:29;0.10;;;0.10;;
10029;SDS011;5055;52.054;8.524;2023-06-10T10:17:00;0.00;;;0.00;;
10029;SDS011;5055;52.054;8.524;2023-06-10T10:19:31;0.10;;;0.10;;
10029;SDS011;5055;52.054;8.524;2023-06-10T10:22:03;0.10;;;0.10;;
10029;SDS011;5055;52.054;8.524;2023-06-10T10:24:36;0.10;;;0.10;;
10029;SDS011;5055;52.054;8.524;2023-06-10T10:27:11;0.00;;;0.00;;
10029;SDS011;5055;52.054;8.524;2023-06-10T10:29:47;0.10;;;0.10;;
10029;SDS011;5055;52.054;8.524;2023-06-10T10:32:18;0.10;;;0.10;;
10029;SDS011;5055;52.054;8.524;2023-06-10T10:34:49;0.00;;;0.00;;
10029;SDS011;5055;52.054;8.524;2023-06-10T10:37:35;0.10;;;0.10;;
10029;SDS011;5055;52.054;8.524;2023-06-10T10:40:04;0.10;;;0.10;;
10029;SDS011;5055;52.054;8.524;2023-06-10T10:42:35;0.10;;;0.10;;
10029;SDS011;5055;52.054;8.524;2023-06-10T10:45:07;0.10;;;0.10;;
10029;SDS011;5055;52.054;8.524;2023-06-10T10:47:36;0.10;;;0.10;;
10029;SDS011;5055;52.054;8.524;2023-06-10T10:50:15;0.10;;;0.10;;
10029;SDS011;5055;52.054;8.524;2023-06-10T10:52:52;0.10;;;0.10;;
10029;SDS011;5055;52.054;8.524;2023-06-10T10:55:22;0.10;;;0.10;;
10029;SDS011;5055;52.054;8.524;2023-06-10T10:57:55;0.10;;;0.10;;
10029;SDS011;5055;52.054;8.524;2023-06-10T11:00:28;0.10;;;0.10;;
10029;SDS011;5055;52.054;8.524;2023-06-10T11:02:58;0.00;;;0.00;;
10029;SDS011;5055;52.054;8.524;2023-06-10T11:05:35;0.10;;;0.10;;
10029;SDS011;5055;52.054;8.524;2023-06-10T11:08:07;0.10;;;0.10;;
10029;SDS011;5055;52.054;8.524;2023-06-10T11:10:36;0.10;;;0.10;;
10029;SDS011;5055;52.054;8.524;2023-06-10T11:13:06;0.10;;;0.10;;
10029;SDS011;5055;52.054;8.524;2023-06-10T11:15:39;0.00;;;0.00;;
10029;SDS011;5055;52.054;8.524;2023-06-10T11:18:12;0.00;;;0.00;;
10029;SDS011;5055;52.054;8.524;2023-06-10T11:20:50;0.10;;;0.10;;
10029;SDS011;5055;52.054;8.524;2023-06-10T11:26:14;0.10;;;0.10;;
10029;SDS011;5055;52.054;8.524;2023-06-10T11:29:02;0.10;;;0.10;;
10029;SDS011;5055;52.054;8.524;2023-06-10T11:31:35;0.10;;;0.10;;
10029;SDS011;5055;52.054;8.524;2023-06-10T11:34:07;0.03;;;0.03;;
10029;SDS011;5055;52.054;8.524;2023-06-10T11:36:36;0.10;;;0.10;;
10029;SDS011;5055;52.054;8.524;2023-06-10T11:39:06;0.10;;;0.10;;
10029;SDS011;5055;52.054;8.524;2023-06-10T11:41:35;0.10;;;0.10;;
10029;SDS011;5055;52.054;8.524;2023-06-10T11:44:09;0.10;;;0.10;;
10029;SDS011;5055;52.054;8.524;2023-06-10T11:46:47;0.10;;;0.10;;
10029;SDS011;5055;52.054;8.524;2023-06-10T11:49:16;0.00;;;0.00;;
10029;SDS011;5055;52.054;8.524;2023-06-10T11:51:45;0.10;;;0.10;;
10029;SDS011;5055;52.054;8.524;2023-06-10T11:54:18;0.00;;;0.00;;
10029;SDS011;5055;52.054;8.524;2023-06-10T11:56:47;0.10;;;0.10;;
10029;SDS011;5055;52.054;8.524;2023-06-10T11:59:15;0.05;;;0.05;;
10029;SDS011;5055;52.054;8.524;2023-06-10T12:01:45;0.10;;;0.10;;
10029;SDS011;5055;52.054;8.524;2023-06-10T12:04:14;0.10;;;0.10;;
10029;SDS011;5055;52.054;8.524;2023-06-10T12:06:45;0.10;;;0.10;;
10029;SDS011;5055;52.054;8.524;2023-06-10T12:09:15;0.10;;;0.10;;
10029;SDS011;5055;52.054;8.524;2023-06-10T12:11:54;0.00;;;0.00;;
10029;SDS011;5055;52.054;8.524;2023-06-10T12:17:19;0.10;;;0.10;;
10029;SDS011;5055;52.054;8.524;2023-06-10T12:19:49;0.10;;;0.10;;
10029;SDS011;5055;52.054;8.524;2023-06-10T12:22:17;0.05;;;0.05;;
10029;SDS011;5055;52.054;8.524;2023-06-10T12:24:57;0.10;;;0.10;;
10029;SDS011;5055;52.054;8.524;2023-06-10T12:27:27;0.10;;;0.10;;
10029;SDS011;5055;52.054;8.524;2023-06-10T12:29:56;0.00;;;0.00;;
10029;SDS011;5055;52.054;8.524;2023-06-10T12:32:39;0.00;;;0.00;;
10029;SDS011;5055;52.054;8.524;2023-06-10T12:35:09;0.10;;;0.10;;
10029;SDS011;5055;52.054;8.524;2023-06-10T12:37:40;0.10;;;0.10;;
10029;SDS011;5055;52.054;8.524;2023-06-10T12:40:11;0.00;;;0.00;;
10029;SDS011;5055;52.054;8.524;2023-06-10T12:42:45;0.10;;;0.10;;
10029;SDS011;5055;52.054;8.524;2023-06-10T12:45:15;0.00;;;0.00;;
10029;SDS011;5055;52.054;8.524;2023-06-10T12:48:05;0.00;;;0.00;;
10029;SDS011;5055;52.054;8.524;2023-06-10T12:50:36;0.10;;;0.10;;
10029;SDS011;5055;52.054;8.524;2023-06-10T12:53:05;0.10;;;0.10;;
10029;SDS011;5055;52.054;8.524;2023-06-10T12:55:34;0.10;;;0.10;;
10029;SDS011;5055;52.054;8.524;2023-06-10T12:58:02;0.00;;;0.00;;
10029;SDS011;5055;52.054;8.524;2023-06-10T13:00:31;0.00;;;0.00;;
10029;SDS011;5055;52.054;8.524;2023-06-10T13:03:02;0.10;;;0.10;;
10029;SDS011;5055;52.054;8.524;2023-06-10T13:05:34;0.10;;;0.10;;
10029;SDS011;5055;52.054;8.524;2023-06-10T13:08:04;0.10;;;0.10;;
10029;SDS011;5055;52.054;8.524;2023-06-10T13:10:33;0.10;;;0.10;;
10029;SDS011;5055;52.054;8.524;2023-06-10T13:13:02;0.08;;;0.08;;
10029;SDS011;5055;52.054;8.524;2023-06-10T13:15:32;0.10;;;0.10;;
10029;SDS011;5055;52.054;8.524;2023-06-10T13:18:08;0.10;;;0.10;;
10029;SDS011;5055;52.054;8.524;2023-06-10T13:20:38;0.10;;;0.10;;
10029;SDS011;5055;52.054;8.524;2023-06-10T13:23:07;0.10;;;0.10;;
10029;SDS011;5055;52.054;8.524;2023-06-10T13:25:35;0.10;;;0.10;;
10029;SDS011;5055;52.054;8.524;2023-06-10T13:28:04;0.10;;;0.10;;
10029;SDS011;5055;52.054;8.524;2023-06-10T13:30:33;0.10;;;0.10;;
10029;SDS011;5055;52.054;8.524;2023-06-10T13:33:01;0.10;;;0.10;;
10029;SDS011;5055;52.054;8.524;2023-06-10T13:35:29;0.00;;;0.00;;
10029;SDS011;5055;52.054;8.524;2023-06-10T13:38:00;0.03;;;0.03;;
10029;SDS011;5055;52.054;8.524;2023-06-10T13:40:28;0.00;;;0.00;;
10029;SDS011;5055;52.054;8.524;2023-06-10T13:42:57;0.10;;;0.10;;
10029;SDS011;5055;52.054;8.524;2023-06-10T13:45:26;0.10;;;0.10;;
10029;SDS011;5055;52.054;8.524;2023-06-10T13:47:55;0.10;;;0.10;;
10029;SDS011;5055;52.054;8.524;2023-06-10T13:50:23;0.10;;;0.10;;
10029;SDS011;5055;52.054;8.524;2023-06-10T13:52:52;0.00;;;0.00;;
10029;SDS011;5055;52.054;8.524;2023-06-10T13:55:22;0.00;;;0.00;;
10029;SDS011;5055;52.054;8.524;2023-06-10T13:57:55;0.00;;;0.00;;
10029;SDS011;5055;52.054;8.524;2023-06-10T14:00:27;0.10;;;0.10;;
10029;SDS011;5055;52.054;8.524;2023-06-10T14:02:56;0.10;;;0.10;;
10029;SDS011;5055;52.054;8.524;2023-06-10T14:05:25;0.10;;;0.10;;
10029;SDS011;5055;52.054;8.524;2023-06-10T14:07:57;0.10;;;0.10;;
10029;SDS011;5055;52.054;8.524;2023-06-10T14:10:27;0.10;;;0.10;;
10029;SDS011;5055;52.054;8.524;2023-06-10T14:12:55;0.10;;;0.10;;
10029;SDS011;5055;52.054;8.524;2023-06-10T14:15:27;0.10;;;0.10;;
10029;SDS011;5055;52.054;8.524;2023-06-10T14:17:56;0.10;;;0.10;;
10029;SDS011;5055;52.054;8.524;2023-06-10T14:20:33;0.00;;;0.00;;
10029;SDS011;5055;52.054;8.524;2023-06-10T14:23:03;0.10;;;0.10;;
10029;SDS011;5055;52.054;8.524;2023-06-10T14:25:33;0.00;;;0.00;;
10029;SDS011;5055;52.054;8.524;2023-06-10T14:28:02;0.00;;;0.00;;
10029;SDS011;5055;52.054;8.524;2023-06-10T14:30:31;0.10;;;0.10;;
10029;SDS011;5055;52.054;8.524;2023-06-10T14:33:02;0.10;;;0.10;;
10029;SDS011;5055;52.054;8.524;2023-06-10T14:35:30;0.10;;;0.10;;
10029;SDS011;5055;52.054;8.524;2023-06-10T14:37:59;0.00;;;0.00;;
10029;SDS011;5055;52.054;8.524;2023-06-10T14:40:34;0.10;;;0.10;;
10029;SDS011;5055;52.054;8.524;2023-06-10T14:43:02;0.10;;;0.10;;
10029;SDS011;5055;52.054;8.524;2023-06-10T14:45:36;0.10;;;0.10;;
10029;SDS011;5055;52.054;8.524;2023-06-10T14:48:05;0.10;;;0.10;;
10029;SDS011;5055;52.054;8.524;2023-06-10T14:50:34;0.03;;;0.03;;
10029;SDS011;5055;52.054;8.524;2023-06-10T14:53:03;0.10;;;0.10;;
10029;SDS011;5055;52.054;8.524;2023-06-10T14:55:31;0.00;;;0.00;;
10029;SDS011;5055;52.054;8.524;2023-06-10T14:58:01;0.08;;;0.08;;
10029;SDS011;5055;52.054;8.524;2023-06-10T15:00:29;0.05;;;0.05;;
10029;SDS011;5055;52.054;8.524;2023-06-10T15:02:58;0.10;;;0.10;;
10029;SDS011;5055;52.054;8.524;2023-06-10T15:05:26;0.10;;;0.10;;
10029;SDS011;5055;52.054;8.524;2023-06-10T15:07:55;0.10;;;0.10;;
10029;SDS011;5055;52.054;8.524;2023-06-10T15:10:23;0.10;;;0.10;;
10029;SDS011;5055;52.054;8.524;2023-06-10T15:12:54;0.10;;;0.10;;
10029;SDS011;5055;52.054;8.524;2023-06-10T15:15:23;0.10;;;0.10;;
10029;SDS011;5055;52.054;8.524;2023-06-10T15:17:52;0.00;;;0.00;;
10029;SDS011;5055;52.054;8.524;2023-06-10T15:20:22;0.00;;;0.00;;
10029;SDS011;5055;52.054;8.524;2023-06-10T15:22:50;0.10;;;0.10;;